Arlington, Indiana
Current Conditions -  °F | °C
As of 8:53 PM on Thursday 20 Nov 2014 (Local Time) from KGEZ Reporting Station
Clear Clear  
Wind Chill: 13°   Ceiling: Unl
Heat Index: 22°   Visibility: 10mi
Dew Point: 14°   Wind: 8mph
Humidity: 72%   Direction: 220°SW
Pressure: 30.21"   Gusts: NA
Location:  39.64°N, 85.57°W
Report Text: KGEZ 210153Z AUTO 22007KT 10SM CLR M06/M10 A3021 RMK AO2 SLP242 T10561100
Loading
Personal Weather Stations






























Interactive Weather Map New forecast layout! Learn more

10-Day Weather Forecast

Advertisements
Track Severe Weather on mobile